Terminal Aerodrome Forecast
Issued by NWS Shreveport, LA

Home | Current Version | Previous Version | Text Only | Print | Product List | Glossary On
Versions: 1 2 3 4 5 6 7 8 9 10 11 12 13 14 15 16 17 18 19 20 21 22 23 24 25
000
FTUS44 KSHV 180526
TAFSHV
TAF
KSHV 180526Z 1806/1906 06005KT P6SM VCSH OVC015
      TEMPO 1809/1813 3SM -TSRA BR OVC005CB
     FM181300 04006KT 3SM -TSRA BR OVC005CB
     FM182000 07006KT 3SM -TSRA BR OVC008CB
     FM190000 07005KT 5SM BR VCSH OVC010=

USA.gov is the U.S. government's official web portal to all federal, state and local government web resources and services.